createdAt,value
2019-02-24T00:01:09.666Z,37.03
2019-02-24T00:03:39.209Z,37.27
2019-02-24T00:06:08.778Z,38.63
2019-02-24T00:08:38.350Z,36.30
2019-02-24T00:11:09.783Z,35.70
2019-02-24T00:13:40.835Z,34.57
2019-02-24T00:16:10.398Z,34.43
2019-02-24T00:18:40.001Z,34.40
2019-02-24T00:21:09.770Z,32.37
2019-02-24T00:23:39.357Z,35.10
2019-02-24T00:26:08.914Z,37.40
2019-02-24T00:28:38.490Z,33.50
2019-02-24T00:31:08.316Z,36.30
2019-02-24T00:33:37.880Z,35.87
2019-02-24T00:36:07.733Z,34.93
2019-02-24T00:38:38.296Z,34.57
2019-02-24T00:41:09.307Z,35.87
2019-02-24T00:43:38.867Z,34.50
2019-02-24T00:46:08.511Z,36.43
2019-02-24T00:48:38.448Z,36.23
2019-02-24T00:51:08.349Z,34.50
2019-02-24T00:53:37.908Z,37.27
2019-02-24T00:56:07.883Z,36.63
2019-02-24T00:58:37.785Z,36.10
2019-02-24T01:01:07.331Z,36.73
2019-02-24T01:03:37.798Z,37.07
2019-02-24T01:06:07.645Z,37.17
2019-02-24T01:08:37.190Z,36.33
2019-02-24T01:11:06.768Z,37.03
2019-02-24T01:13:36.666Z,37.50
2019-02-24T01:16:06.204Z,39.30
2019-02-24T01:18:36.061Z,37.53
2019-02-24T01:21:05.600Z,39.77
2019-02-24T01:23:35.499Z,40.00
2019-02-24T01:26:05.426Z,39.80
2019-02-24T01:28:34.975Z,36.97
2019-02-24T01:31:04.802Z,40.67
2019-02-24T01:33:34.745Z,42.77
2019-02-24T01:36:04.291Z,39.17
2019-02-24T01:38:34.163Z,40.53
2019-02-24T01:41:03.829Z,44.30
2019-02-24T01:43:35.060Z,41.23
2019-02-24T01:46:04.639Z,42.67
2019-02-24T01:48:34.277Z,42.30
2019-02-24T01:51:03.907Z,45.00
2019-02-24T01:53:33.457Z,39.17
2019-02-24T01:56:03.369Z,43.17
2019-02-24T01:58:35.383Z,44.30
2019-02-24T02:01:05.218Z,42.73
2019-02-24T02:03:35.074Z,43.67
2019-02-24T02:06:24.418Z,40.80
2019-02-24T02:08:53.971Z,45.00
2019-02-24T02:11:23.546Z,43.73
2019-02-24T02:13:53.440Z,45.13
2019-02-24T02:16:23.359Z,46.07
2019-02-24T02:18:52.914Z,48.23
2019-02-24T02:21:22.890Z,45.63
2019-02-24T02:23:52.805Z,44.83
2019-02-24T02:26:22.350Z,45.43
2019-02-24T02:28:52.791Z,45.80
2019-02-24T02:31:22.331Z,44.10
2019-02-24T02:33:51.884Z,46.97
2019-02-24T02:36:21.463Z,43.43
2019-02-24T02:38:51.375Z,45.67
2019-02-24T02:41:21.303Z,49.47
2019-02-24T02:43:51.200Z,43.77
2019-02-24T02:46:20.783Z,47.07
2019-02-24T02:48:50.342Z,47.73
2019-02-24T02:51:19.946Z,45.13
2019-02-24T02:53:49.759Z,44.07
2019-02-24T02:56:19.323Z,44.60
2019-02-24T02:58:54.241Z,43.90
2019-02-24T03:01:20.074Z,46.00
2019-02-24T03:03:49.651Z,44.97
2019-02-24T03:06:26.503Z,47.90
2019-02-24T03:08:56.097Z,44.67
2019-02-24T03:11:25.638Z,46.40
2019-02-24T03:13:55.185Z,45.47
2019-02-24T03:16:26.347Z,45.93
2019-02-24T03:18:55.897Z,43.93
2019-02-24T03:21:25.440Z,45.57
2019-02-24T03:23:55.170Z,46.23
2019-02-24T03:26:24.716Z,45.97
2019-02-24T03:29:03.566Z,45.77
2019-02-24T03:31:25.660Z,47.73
2019-02-24T03:34:14.568Z,44.40
2019-02-24T03:36:44.154Z,41.13
2019-02-24T03:39:13.691Z,41.90
2019-02-24T03:41:43.262Z,42.80
2019-02-24T03:44:12.836Z,42.43
2019-02-24T03:46:42.410Z,43.20
2019-02-24T03:49:11.973Z,41.87
2019-02-24T03:51:41.589Z,43.93
2019-02-24T03:54:11.270Z,40.63
2019-02-24T03:56:40.828Z,41.83
2019-02-24T03:59:15.135Z,42.00
2019-02-24T04:01:42.519Z,43.00
2019-02-24T04:04:12.157Z,41.23
2019-02-24T04:06:41.684Z,43.27
2019-02-24T04:09:11.258Z,40.73
2019-02-24T04:11:40.910Z,41.50
2019-02-24T04:14:10.445Z,41.30
2019-02-24T04:16:40.009Z,43.53
2019-02-24T04:19:09.943Z,44.10
2019-02-24T04:21:39.507Z,41.53
2019-02-24T04:24:09.333Z,45.20
2019-02-24T04:26:39.304Z,45.03
2019-02-24T04:29:08.812Z,46.57
2019-02-24T04:31:38.371Z,45.27
2019-02-24T04:34:07.982Z,43.83
2019-02-24T04:36:37.564Z,45.60
2019-02-24T04:39:07.138Z,47.60
2019-02-24T04:41:37.043Z,48.93
2019-02-24T04:44:06.943Z,43.33
2019-02-24T04:46:37.439Z,44.60
2019-02-24T04:49:07.290Z,44.33
2019-02-24T04:51:36.865Z,45.53
2019-02-24T04:54:06.458Z,51.30
2019-02-24T04:56:36.020Z,48.40
2019-02-24T04:59:05.570Z,46.00
2019-02-24T05:01:36.153Z,46.47
2019-02-24T05:04:05.684Z,48.50
2019-02-24T05:06:35.331Z,50.47
2019-02-24T05:09:04.921Z,46.00
2019-02-24T05:11:34.660Z,49.80
2019-02-24T05:14:04.247Z,51.23
2019-02-24T05:16:33.858Z,49.10
2019-02-24T05:19:03.448Z,51.53
2019-02-24T05:21:32.956Z,51.70
2019-02-24T05:24:02.527Z,49.33
2019-02-24T05:26:32.091Z,52.87
2019-02-24T05:29:01.658Z,51.73
2019-02-24T05:31:31.638Z,54.53
2019-02-24T05:34:01.235Z,53.33
2019-02-24T05:36:31.395Z,54.77
2019-02-24T05:39:01.113Z,51.67
2019-02-24T05:41:32.612Z,54.13
2019-02-24T05:44:02.566Z,53.53
2019-02-24T05:46:32.440Z,54.20
2019-02-24T05:49:03.388Z,55.03
2019-02-24T05:51:32.929Z,56.67
2019-02-24T05:54:02.472Z,57.27
2019-02-24T05:56:32.086Z,60.23
2019-02-24T05:59:01.645Z,60.87
2019-02-24T06:01:31.183Z,64.53
2019-02-24T06:04:00.901Z,66.73
2019-02-24T06:06:30.439Z,65.47
2019-02-24T06:09:00.342Z,68.13
2019-02-24T06:11:29.919Z,68.00
2019-02-24T06:13:59.766Z,71.20
2019-02-24T06:16:29.328Z,74.20
2019-02-24T06:18:58.945Z,72.03
2019-02-24T06:21:28.796Z,73.30
2019-02-24T06:23:58.337Z,75.70
2019-02-24T06:26:27.910Z,77.80
2019-02-24T06:28:57.466Z,80.50
2019-02-24T06:31:27.023Z,82.17
2019-02-24T06:33:56.594Z,81.73
2019-02-24T06:36:26.414Z,83.03
2019-02-24T06:38:56.334Z,85.83
2019-02-24T06:41:25.946Z,83.60
2019-02-24T06:43:55.514Z,88.97
2019-02-24T06:46:25.052Z,91.23
2019-02-24T06:48:54.632Z,90.67
2019-02-24T06:51:25.030Z,89.90
2019-02-24T06:53:54.598Z,86.40
2019-02-24T06:56:24.171Z,90.57
2019-02-24T06:58:53.726Z,91.67
2019-02-24T07:01:23.295Z,92.93
2019-02-24T07:03:54.534Z,92.33
2019-02-24T07:06:24.213Z,97.23
2019-02-24T07:08:53.901Z,92.77
2019-02-24T07:11:23.461Z,90.33
2019-02-24T07:13:53.095Z,93.33
2019-02-24T07:16:22.652Z,95.63
2019-02-24T07:18:52.223Z,92.33
2019-02-24T07:21:21.792Z,99.00
2019-02-24T07:23:51.723Z,93.43
2019-02-24T07:26:21.277Z,96.27
2019-02-24T07:28:50.823Z,93.23
2019-02-24T07:31:20.409Z,93.97
2019-02-24T07:33:50.258Z,93.43
2019-02-24T07:36:19.803Z,94.23
2019-02-24T07:38:49.376Z,94.23
2019-02-24T07:41:20.915Z,87.90
2019-02-24T07:43:50.526Z,92.73
2019-02-24T07:46:20.092Z,94.37
2019-02-24T07:48:49.889Z,93.70
2019-02-24T07:51:19.462Z,90.67
2019-02-24T07:53:49.003Z,87.80
2019-02-24T07:56:18.558Z,95.00
2019-02-24T07:58:48.141Z,92.57
2019-02-24T08:01:17.698Z,93.17
2019-02-24T08:03:47.260Z,92.83
2019-02-24T08:06:16.876Z,91.77
2019-02-24T08:08:46.442Z,86.80
2019-02-24T08:11:16.002Z,88.00
2019-02-24T08:13:45.625Z,90.50
2019-02-24T08:16:15.283Z,89.97
2019-02-24T08:18:49.525Z,89.37
2019-02-24T08:21:16.056Z,85.60
2019-02-24T08:23:45.591Z,86.03
2019-02-24T08:26:15.158Z,84.83
2019-02-24T08:28:44.772Z,85.63
2019-02-24T08:31:14.305Z,83.83
2019-02-24T08:33:43.851Z,81.47
2019-02-24T08:36:13.426Z,82.57
2019-02-24T08:38:43.012Z,79.53
2019-02-24T08:41:12.825Z,81.97
2019-02-24T08:43:42.744Z,79.83
2019-02-24T08:46:12.416Z,77.20
2019-02-24T08:48:42.088Z,79.77
2019-02-24T08:51:13.091Z,79.47
2019-02-24T08:53:42.645Z,77.73
2019-02-24T08:56:12.195Z,79.93
2019-02-24T08:58:42.130Z,79.77
2019-02-24T09:01:11.691Z,77.43
2019-02-24T09:03:41.550Z,77.63
2019-02-24T09:06:11.119Z,75.07
2019-02-24T09:08:40.957Z,78.67
2019-02-24T09:11:10.859Z,75.37
2019-02-24T09:13:40.795Z,71.67
2019-02-24T09:16:10.333Z,72.10
2019-02-24T09:18:39.915Z,71.73
2019-02-24T09:21:09.547Z,70.73
2019-02-24T09:23:39.113Z,71.90
2019-02-24T09:26:08.867Z,68.63
2019-02-24T09:28:38.443Z,71.77
2019-02-24T09:31:08.346Z,71.83
2019-02-24T09:33:37.891Z,65.37
2019-02-24T09:36:07.496Z,71.37
2019-02-24T09:38:37.037Z,67.57
2019-02-24T09:41:06.587Z,67.37
2019-02-24T09:43:36.188Z,66.50
2019-02-24T09:46:05.786Z,65.70
2019-02-24T09:48:35.333Z,63.03
2019-02-24T09:51:06.932Z,66.27
2019-02-24T09:53:36.500Z,62.57
2019-02-24T09:56:06.154Z,64.57
2019-02-24T09:58:36.666Z,69.53
2019-02-24T10:01:10.794Z,66.17
2019-02-24T10:03:38.737Z,66.77
2019-02-24T10:06:08.604Z,61.80
2019-02-24T10:08:38.194Z,64.20
2019-02-24T10:11:07.988Z,62.47
2019-02-24T10:13:37.613Z,60.57
2019-02-24T10:16:07.248Z,64.83
2019-02-24T10:18:36.813Z,61.40
2019-02-24T10:21:06.798Z,60.67
2019-02-24T10:23:36.701Z,60.70
2019-02-24T10:26:06.251Z,59.27
2019-02-24T10:28:35.806Z,59.43
2019-02-24T10:31:05.390Z,56.23
2019-02-24T10:33:35.069Z,58.03
2019-02-24T10:36:04.632Z,59.23
2019-02-24T10:38:34.261Z,55.80
2019-02-24T10:41:03.817Z,59.67
2019-02-24T10:43:33.374Z,55.87
2019-02-24T10:46:02.939Z,55.67
2019-02-24T10:48:32.811Z,54.67
2019-02-24T10:51:02.372Z,55.93
2019-02-24T10:53:32.989Z,54.23
2019-02-24T10:56:02.849Z,55.07
2019-02-24T10:58:34.914Z,54.20
2019-02-24T11:01:03.635Z,53.90
2019-02-24T11:03:33.196Z,55.83
2019-02-24T11:06:02.749Z,52.33
2019-02-24T11:08:32.698Z,53.90
2019-02-24T11:11:02.254Z,51.80
2019-02-24T11:13:32.845Z,54.63
2019-02-24T11:16:02.407Z,50.83
2019-02-24T11:18:31.957Z,55.30
2019-02-24T11:21:01.904Z,53.87
2019-02-24T11:23:31.445Z,51.40
2019-02-24T11:26:01.365Z,48.67
2019-02-24T11:28:30.948Z,54.33
2019-02-24T11:31:00.510Z,54.67
2019-02-24T11:33:30.085Z,54.10
2019-02-24T11:35:59.648Z,50.13
2019-02-24T11:38:29.191Z,51.53
2019-02-24T11:40:58.762Z,49.90
2019-02-24T11:43:28.373Z,49.07
2019-02-24T11:45:57.905Z,50.93
2019-02-24T11:48:27.454Z,51.80
2019-02-24T11:50:57.035Z,48.73
2019-02-24T11:53:26.588Z,50.57
2019-02-24T11:55:56.140Z,48.33
2019-02-24T11:58:25.875Z,47.67
2019-02-24T12:00:55.411Z,49.43
2019-02-24T12:03:24.975Z,49.90
2019-02-24T12:05:54.771Z,47.30
2019-02-24T12:08:24.317Z,48.13
2019-02-24T12:10:53.875Z,46.77
2019-02-24T12:13:23.456Z,49.73
2019-02-24T12:15:54.857Z,50.10
2019-02-24T12:18:24.862Z,47.87
2019-02-24T12:20:54.449Z,49.27
2019-02-24T12:23:24.002Z,49.77
2019-02-24T12:25:54.131Z,47.80
2019-02-24T12:28:23.729Z,53.57
2019-02-24T12:30:53.407Z,49.37
2019-02-24T12:33:23.943Z,48.23
2019-02-24T12:35:53.875Z,49.43
2019-02-24T12:38:23.417Z,48.40
2019-02-24T12:40:52.982Z,48.73
2019-02-24T12:43:22.577Z,49.23
2019-02-24T12:45:52.099Z,50.60
2019-02-24T12:48:21.700Z,49.03
2019-02-24T12:50:51.596Z,49.37
2019-02-24T12:53:21.125Z,47.43
2019-02-24T12:55:51.038Z,47.17
2019-02-24T12:58:23.482Z,47.23
2019-02-24T13:00:53.538Z,45.90
2019-02-24T13:03:24.209Z,45.33
2019-02-24T13:05:54.027Z,45.63
2019-02-24T13:08:23.576Z,46.10
2019-02-24T13:10:53.506Z,49.87
2019-02-24T13:13:23.099Z,49.17
2019-02-24T13:15:52.646Z,47.07
2019-02-24T13:18:23.176Z,46.57
2019-02-24T13:20:52.743Z,47.57
2019-02-24T13:23:22.320Z,46.00
2019-02-24T13:25:52.161Z,47.67
2019-02-24T13:28:21.937Z,48.37
2019-02-24T13:30:51.481Z,47.10
2019-02-24T13:33:21.021Z,47.20
2019-02-24T13:35:50.631Z,48.47
2019-02-24T13:38:21.183Z,48.63
2019-02-24T13:40:50.741Z,48.30
2019-02-24T13:43:20.362Z,48.40
2019-02-24T13:45:49.899Z,46.47
2019-02-24T13:48:19.706Z,47.53
2019-02-24T13:50:49.305Z,47.10
2019-02-24T13:53:18.851Z,47.00
2019-02-24T13:55:48.408Z,47.03
2019-02-24T13:58:18.012Z,50.57
2019-02-24T14:00:47.578Z,49.10
2019-02-24T14:03:17.145Z,47.40
2019-02-24T14:05:46.752Z,46.90
2019-02-24T14:08:16.700Z,50.60
2019-02-24T14:10:46.256Z,49.87
2019-02-24T14:13:16.135Z,49.97
2019-02-24T14:15:45.675Z,52.23
2019-02-24T14:18:15.245Z,49.40
2019-02-24T14:20:44.807Z,49.97
2019-02-24T14:23:14.350Z,53.40
2019-02-24T14:25:43.910Z,52.00
2019-02-24T14:28:13.495Z,54.00
2019-02-24T14:30:43.045Z,54.63
2019-02-24T14:33:12.986Z,52.33
2019-02-24T14:35:42.900Z,51.37
2019-02-24T14:38:12.456Z,54.40
2019-02-24T14:40:42.014Z,51.00
2019-02-24T14:43:33.096Z,53.80
2019-02-24T14:46:02.915Z,56.43
2019-02-24T14:48:32.515Z,54.47
2019-02-24T14:51:02.068Z,54.30
2019-02-24T14:53:31.643Z,54.30
2019-02-24T14:56:01.255Z,54.40
2019-02-24T14:58:30.801Z,51.97
2019-02-24T15:01:00.825Z,53.40
2019-02-24T15:03:30.562Z,54.03
2019-02-24T15:06:00.112Z,53.67
2019-02-24T15:08:30.559Z,54.50
2019-02-24T15:11:00.231Z,55.53
2019-02-24T15:13:29.760Z,54.73
2019-02-24T15:15:59.318Z,55.07
2019-02-24T15:18:29.023Z,53.43
2019-02-24T15:20:58.830Z,51.93
2019-02-24T15:23:28.383Z,54.07
2019-02-24T15:25:57.956Z,57.80
2019-02-24T15:28:27.892Z,54.87
2019-02-24T15:30:57.479Z,59.93
2019-02-24T15:33:27.070Z,56.10
2019-02-24T15:35:56.626Z,59.10
2019-02-24T15:38:26.175Z,56.47
2019-02-24T15:40:55.904Z,56.77
2019-02-24T15:43:25.456Z,53.97
2019-02-24T15:45:55.009Z,55.37
2019-02-24T15:48:24.691Z,57.97
2019-02-24T15:50:54.363Z,59.37
2019-02-24T15:53:23.947Z,56.33
2019-02-24T15:55:53.528Z,59.03
2019-02-24T15:58:23.088Z,57.77
2019-02-24T16:00:52.650Z,54.93
2019-02-24T16:03:22.391Z,55.47
2019-02-24T16:05:51.943Z,56.20
2019-02-24T16:08:21.519Z,56.03
2019-02-24T16:10:52.025Z,58.13
2019-02-24T16:13:21.567Z,58.77
2019-02-24T16:15:51.239Z,59.93
2019-02-24T16:18:21.623Z,58.77
2019-02-24T16:20:51.181Z,56.00
2019-02-24T16:23:20.738Z,59.70
2019-02-24T16:25:51.174Z,59.57
2019-02-24T16:28:20.725Z,61.10
2019-02-24T16:30:50.310Z,59.80
2019-02-24T16:33:19.892Z,58.97
2019-02-24T16:35:49.431Z,58.13
2019-02-24T16:38:19.010Z,63.43
2019-02-24T16:40:48.577Z,59.13
2019-02-24T16:43:19.567Z,60.87
2019-02-24T16:45:49.388Z,62.83
2019-02-24T16:48:19.894Z,60.90
2019-02-24T16:50:49.747Z,63.80
2019-02-24T16:53:19.347Z,61.13
2019-02-24T16:55:48.924Z,58.77
2019-02-24T16:58:18.867Z,62.20
2019-02-24T17:00:48.428Z,61.10
2019-02-24T17:03:20.079Z,62.00
2019-02-24T17:05:49.756Z,60.83
2019-02-24T17:08:19.653Z,62.97
2019-02-24T17:10:49.242Z,61.83
2019-02-24T17:13:19.278Z,62.07
2019-02-24T17:15:48.858Z,61.37
2019-02-24T17:18:19.689Z,61.80
2019-02-24T17:20:50.212Z,60.07
2019-02-24T17:23:19.798Z,59.27
2019-02-24T17:25:49.353Z,63.20
2019-02-24T17:28:19.932Z,59.73
2019-02-24T17:30:49.585Z,62.67
2019-02-24T17:33:29.324Z,57.37
2019-02-24T17:35:50.698Z,62.73
2019-02-24T17:38:21.285Z,64.40
2019-02-24T17:40:50.841Z,59.77
2019-02-24T17:43:28.154Z,62.17
2019-02-24T17:45:55.008Z,59.47
2019-02-24T17:48:25.670Z,60.23
2019-02-24T17:50:55.673Z,61.50
2019-02-24T17:53:25.239Z,58.43
2019-02-24T17:55:54.812Z,60.63
2019-02-24T17:58:24.799Z,67.10
2019-02-24T18:00:56.932Z,64.83
2019-02-24T18:03:27.447Z,67.10
2019-02-24T18:05:56.995Z,64.73
2019-02-24T18:08:28.383Z,62.97
2019-02-24T18:10:58.188Z,63.03
2019-02-24T18:13:27.910Z,62.33
2019-02-24T18:15:57.483Z,65.17
2019-02-24T18:18:27.380Z,64.27
2019-02-24T18:20:56.924Z,66.40
2019-02-24T18:23:26.554Z,62.57
2019-02-24T18:25:56.505Z,63.83
2019-02-24T18:28:26.435Z,69.10
2019-02-24T18:30:56.109Z,65.93
2019-02-24T18:33:25.680Z,62.77
2019-02-24T18:35:55.219Z,65.90
2019-02-24T18:38:24.790Z,65.37
2019-02-24T18:40:54.371Z,63.00
2019-02-24T18:43:23.907Z,65.07
2019-02-24T18:45:53.489Z,61.50
2019-02-24T18:48:25.227Z,65.03
2019-02-24T18:50:54.808Z,66.03
2019-02-24T18:53:24.367Z,64.90
2019-02-24T18:55:53.989Z,65.20
2019-02-24T18:58:23.548Z,63.30
2019-02-24T19:00:53.105Z,65.70
2019-02-24T19:03:22.681Z,64.77
2019-02-24T19:05:52.216Z,64.97
2019-02-24T19:08:22.082Z,63.90
2019-02-24T19:10:52.573Z,65.20
2019-02-24T19:13:22.144Z,62.17
2019-02-24T19:15:51.711Z,65.57
2019-02-24T19:18:21.688Z,65.10
2019-02-24T19:20:51.253Z,68.57
2019-02-24T19:23:20.826Z,66.87
2019-02-24T19:25:50.436Z,63.90
2019-02-24T19:28:20.031Z,65.67
2019-02-24T19:30:49.610Z,66.60
2019-02-24T19:33:19.214Z,68.07
2019-02-24T19:35:48.753Z,66.60
2019-02-24T19:38:18.338Z,65.43
2019-02-24T19:40:48.387Z,64.63
2019-02-24T19:43:18.106Z,68.93
2019-02-24T19:45:48.794Z,68.83
2019-02-24T19:48:18.324Z,68.00
2019-02-24T19:50:47.879Z,68.33
2019-02-24T19:53:17.463Z,70.00
2019-02-24T19:55:47.015Z,68.97
2019-02-24T19:58:16.555Z,66.83
2019-02-24T20:00:46.172Z,67.70
2019-02-24T20:03:15.708Z,67.33
2019-02-24T20:05:45.600Z,71.80
2019-02-24T20:08:15.557Z,68.03
2019-02-24T20:10:45.432Z,67.80
2019-02-24T20:13:14.982Z,70.97
2019-02-24T20:15:44.598Z,66.23
2019-02-24T20:18:14.126Z,68.00
2019-02-24T20:20:43.707Z,69.03
2019-02-24T20:23:13.278Z,66.93
2019-02-24T20:25:42.839Z,66.70
2019-02-24T20:28:12.683Z,67.37
2019-02-24T20:30:42.260Z,68.33
2019-02-24T20:33:11.889Z,68.27
2019-02-24T20:35:41.561Z,66.63
2019-02-24T20:38:11.179Z,64.67
2019-02-24T20:40:40.738Z,65.03
2019-02-24T20:43:10.288Z,65.10
2019-02-24T20:45:39.950Z,67.03
2019-02-24T20:48:09.520Z,65.07
2019-02-24T20:50:39.448Z,67.30
2019-02-24T20:53:09.041Z,64.20
2019-02-24T20:55:38.721Z,66.77
2019-02-24T20:58:08.582Z,67.13
2019-02-24T21:00:44.282Z,63.97
2019-02-24T21:03:13.848Z,63.97
2019-02-24T21:05:44.248Z,61.37
2019-02-24T21:08:25.622Z,62.63
2019-02-24T21:10:55.462Z,65.27
2019-02-24T21:13:25.015Z,62.80
2019-02-24T21:15:54.988Z,64.80
2019-02-24T21:18:25.654Z,60.83
2019-02-24T21:20:55.523Z,64.57
2019-02-24T21:23:25.080Z,64.13
2019-02-24T21:25:54.632Z,63.83
2019-02-24T21:28:24.212Z,60.70
2019-02-24T21:30:53.754Z,62.17
2019-02-24T21:33:23.310Z,58.13
2019-02-24T21:35:53.286Z,60.93
2019-02-24T21:38:22.817Z,60.40
2019-02-24T21:40:52.362Z,61.57
2019-02-24T21:43:22.286Z,59.07
2019-02-24T21:45:51.847Z,59.50
2019-02-24T21:48:21.394Z,60.50
2019-02-24T21:50:50.970Z,57.80
2019-02-24T21:53:20.823Z,59.20
2019-02-24T21:55:50.384Z,56.53
2019-02-24T21:58:21.651Z,60.90
2019-02-24T22:00:51.496Z,61.67
2019-02-24T22:03:21.416Z,59.17
2019-02-24T22:05:50.990Z,62.50
2019-02-24T22:08:20.959Z,60.93
2019-02-24T22:10:50.646Z,60.03
2019-02-24T22:13:20.231Z,60.93
2019-02-24T22:15:49.762Z,64.83
2019-02-24T22:18:19.322Z,60.57
2019-02-24T22:20:48.944Z,58.33
2019-02-24T22:23:18.479Z,59.43
2019-02-24T22:25:48.094Z,61.30
2019-02-24T22:28:17.639Z,59.17
2019-02-24T22:30:47.178Z,59.50
2019-02-24T22:33:16.733Z,56.87
2019-02-24T22:35:46.347Z,59.27
2019-02-24T22:38:15.900Z,60.07
2019-02-24T22:40:54.012Z,59.40
2019-02-24T22:43:16.771Z,60.57
2019-02-24T22:45:46.664Z,60.40
2019-02-24T22:48:16.252Z,60.17
2019-02-24T22:50:45.823Z,59.73
2019-02-24T22:53:15.378Z,60.00
2019-02-24T22:55:44.936Z,59.50
2019-02-24T22:58:14.514Z,60.97
2019-02-24T23:00:51.630Z,58.73
2019-02-24T23:03:35.760Z,56.23
2019-02-24T23:06:05.338Z,56.17
2019-02-24T23:08:34.901Z,58.00
2019-02-24T23:11:05.891Z,54.70
2019-02-24T23:13:35.429Z,54.70
2019-02-24T23:16:06.005Z,53.23
2019-02-24T23:18:35.548Z,52.03
2019-02-24T23:21:06.004Z,54.10
2019-02-24T23:23:35.645Z,55.20
2019-02-24T23:26:05.187Z,55.43
2019-02-24T23:28:34.962Z,55.17
2019-02-24T23:31:04.547Z,56.23
2019-02-24T23:33:34.086Z,50.83
2019-02-24T23:36:03.659Z,55.87
2019-02-24T23:38:33.231Z,53.93
2019-02-24T23:41:03.109Z,51.53
2019-02-24T23:43:32.951Z,52.40
2019-02-24T23:46:02.956Z,53.50
2019-02-24T23:48:32.871Z,54.83
2019-02-24T23:51:14.568Z,53.67
2019-02-24T23:53:44.148Z,52.37
2019-02-24T23:56:13.720Z,52.43
2019-02-24T23:58:45.533Z,52.07
